Budapest Bridge — VRIZ5 — position and weather

sailwx.info

Track history (hours):
 
Tides and Currents Weather Stations Pressure Air Temp Water Temp Dewpoint Dewpoint Depression Visibility Wind Speed Wind Dir Waves Ship Positions

Budapest Bridge

Last reported at 2014-Jul-26 07:09 UTC. Time now 2014-Jul-26 11:12 UTC.
Position N 01°09' E 103°45'.

Length 268 m; draft 12 m.

Type: Cargo ship. MMSI: 477434200.

Date/timePositionNaut miles runAvg speedWind from/ knotsBaromVisibWave heightAir tempDewpointWater temp
2014-Jul-26 07:09N 01°09' E 103°45'813.4
2014-Jul-26 06:33N 01°13' E 103°52'1614.9
2014-Jul-26 05:29N 01°16' E 104°08'  
2014-Jul-22 14:19N 22°18' E 114°06'1012.1
2014-Jul-22 13:31N 22°21' E 113°56'6 6.8
2014-Jul-22 12:33N 22°27' E 113°54'0 0.1
2014-Jul-22 11:33N 22°27' E 113°54'0 0.0
2014-Jul-22 10:33N 22°27' E 113°54'0 0.0
2014-Jul-22 09:33N 22°27' E 113°54'0 0.0
2014-Jul-22 08:33N 22°27' E 113°54'0 0.0
2014-Jul-22 07:33N 22°27' E 113°54'0 0.0
2014-Jul-22 06:33N 22°27' E 113°54'0 0.0
2014-Jul-22 05:33N 22°27' E 113°54'0 0.0
2014-Jul-22 04:33N 22°27' E 113°54'0 0.0
2014-Jul-22 03:33N 22°27' E 113°54'0 0.0
2014-Jul-22 02:33N 22°27' E 113°54'0 0.0
2014-Jul-22 01:33N 22°27' E 113°54'7 6.4
2014-Jul-22 00:28N 22°21' E 113°57'1110.0
2014-Jul-21 23:20N 22°15' E 114°07'5 5.8
2014-Jul-21 22:27N 22°10' E 114°10'0 0.1
2014-Jul-21 20:32N 22°10' E 114°10'0 0.1
2014-Jul-21 20:02N 22°10' E 114°10'0 0.0
2014-Jul-21 18:26N 22°10' E 114°10'0 0.0
2014-Jul-21 14:20N 22°10' E 114°10'0 0.0
2014-Jul-21 11:26N 22°10' E 114°10'0 0.0
2014-Jul-21 10:26N 22°10' E 114°10'0 0.1
2014-Jul-21 09:32N 22°11' E 114°10'0 0.0
2014-Jul-21 03:32N 22°10' E 114°10'0 0.2
2014-Jul-21 02:33N 22°10' E 114°10'8 7.4
2014-Jul-21 01:25N 22°18' E 114°06'3 0.3
2014-Jul-20 14:16N 22°20' E 114°07'220 6.2
2014-Jul-19 02:33N 23°35' E 117°52'1212.2
2014-Jul-19 01:33N 23°43' E 118°01'1212.4
2014-Jul-19 00:33N 23°52' E 118°11'1312.8
2014-Jul-18 23:33N 24°01' E 118°21'1010.3
2014-Jul-18 22:33N 24°11' E 118°19'1414.0
2014-Jul-18 21:33N 24°21' E 118°09'9 9.1
2014-Jul-18 20:33N 24°27' E 118°01'0 0.0
2014-Jul-18 19:33N 24°27' E 118°01'0 0.0
2014-Jul-18 18:33N 24°27' E 118°01'0 0.0
2014-Jul-18 17:32N 24°27' E 118°01'0 0.0
2014-Jul-18 16:30N 24°27' E 118°01'0 0.0
2014-Jul-18 15:33N 24°27' E 118°01'0 0.0
2014-Jul-18 14:07N 24°27' E 118°01'0 0.1
2014-Jul-18 13:15N 24°27' E 118°01'0 0.0
2014-Jul-18 11:04N 24°27' E 118°01'0 0.0
2014-Jul-18 10:33N 24°27' E 118°01'0 0.0
2014-Jul-18 09:33N 24°27' E 118°01'0 0.0
2014-Jul-18 08:34N 24°27' E 118°01'1 1.3
2014-Jul-18 07:33N 24°26' E 118°02'1010.2
2014-Jul-18 06:33N 24°20' E 118°11'1211.6
2014-Jul-18 05:33N 24°14' E 118°22'1414.6
2014-Jul-18 04:33N 24°19' E 118°37'1919.0
2014-Jul-18 03:33N 24°26' E 118°57'2020.0
2014-Jul-18 02:33N 24°35' E 119°16'  
Track history (hours):
 
Tides and Currents Weather Stations Pressure Air Temp Water Temp Dewpoint Dewpoint Depression Visibility Wind Speed Wind Dir Waves Ship Positions

Budapest Bridge

Last reported at 2014-Jul-26 07:09 UTC. Time now 2014-Jul-26 11:12 UTC.
Position N 01°09' E 103°45'.

Length 268 m; draft 12 m.

Type: Cargo ship. MMSI: 477434200.

Date/timePositionNaut miles runAvg speedWind from/ knotsBaromVisibWave heightAir tempDewpointWater temp
2014-Jul-26 07:09N 01°09' E 103°45'813.4
2014-Jul-26 06:33N 01°13' E 103°52'1614.9
2014-Jul-26 05:29N 01°16' E 104°08'  
2014-Jul-22 14:19N 22°18' E 114°06'1012.1
2014-Jul-22 13:31N 22°21' E 113°56'6 6.8
2014-Jul-22 12:33N 22°27' E 113°54'0 0.1
2014-Jul-22 11:33N 22°27' E 113°54'0 0.0
2014-Jul-22 10:33N 22°27' E 113°54'0 0.0
2014-Jul-22 09:33N 22°27' E 113°54'0 0.0
2014-Jul-22 08:33N 22°27' E 113°54'0 0.0
2014-Jul-22 07:33N 22°27' E 113°54'0 0.0
2014-Jul-22 06:33N 22°27' E 113°54'0 0.0
2014-Jul-22 05:33N 22°27' E 113°54'0 0.0
2014-Jul-22 04:33N 22°27' E 113°54'0 0.0
2014-Jul-22 03:33N 22°27' E 113°54'0 0.0
2014-Jul-22 02:33N 22°27' E 113°54'0 0.0
2014-Jul-22 01:33N 22°27' E 113°54'7 6.4
2014-Jul-22 00:28N 22°21' E 113°57'1110.0
2014-Jul-21 23:20N 22°15' E 114°07'5 5.8
2014-Jul-21 22:27N 22°10' E 114°10'0 0.1
2014-Jul-21 20:32N 22°10' E 114°10'0 0.1
2014-Jul-21 20:02N 22°10' E 114°10'0 0.0
2014-Jul-21 18:26N 22°10' E 114°10'0 0.0
2014-Jul-21 14:20N 22°10' E 114°10'0 0.0
2014-Jul-21 11:26N 22°10' E 114°10'0 0.0
2014-Jul-21 10:26N 22°10' E 114°10'0 0.1
2014-Jul-21 09:32N 22°11' E 114°10'0 0.0
2014-Jul-21 03:32N 22°10' E 114°10'0 0.2
2014-Jul-21 02:33N 22°10' E 114°10'8 7.4
2014-Jul-21 01:25N 22°18' E 114°06'3 0.3
2014-Jul-20 14:16N 22°20' E 114°07'220 6.2
2014-Jul-19 02:33N 23°35' E 117°52'1212.2
2014-Jul-19 01:33N 23°43' E 118°01'1212.4
2014-Jul-19 00:33N 23°52' E 118°11'1312.8
2014-Jul-18 23:33N 24°01' E 118°21'1010.3
2014-Jul-18 22:33N 24°11' E 118°19'1414.0
2014-Jul-18 21:33N 24°21' E 118°09'9 9.1
2014-Jul-18 20:33N 24°27' E 118°01'0 0.0
2014-Jul-18 19:33N 24°27' E 118°01'0 0.0
2014-Jul-18 18:33N 24°27' E 118°01'0 0.0
2014-Jul-18 17:32N 24°27' E 118°01'0 0.0
2014-Jul-18 16:30N 24°27' E 118°01'0 0.0
2014-Jul-18 15:33N 24°27' E 118°01'0 0.0
2014-Jul-18 14:07N 24°27' E 118°01'0 0.1
2014-Jul-18 13:15N 24°27' E 118°01'0 0.0
2014-Jul-18 11:04N 24°27' E 118°01'0 0.0
2014-Jul-18 10:33N 24°27' E 118°01'0 0.0
2014-Jul-18 09:33N 24°27' E 118°01'0 0.0
2014-Jul-18 08:34N 24°27' E 118°01'1 1.3
2014-Jul-18 07:33N 24°26' E 118°02'1010.2
2014-Jul-18 06:33N 24°20' E 118°11'1211.6
2014-Jul-18 05:33N 24°14' E 118°22'1414.6
2014-Jul-18 04:33N 24°19' E 118°37'1919.0
2014-Jul-18 03:33N 24°26' E 118°57'2020.0
2014-Jul-18 02:33N 24°35' E 119°16'  

Dump ship's entire track history